sensor_id;sensor_type;location;lat;lon;timestamp;P1;durP1;ratioP1;P2;durP2;ratioP2
19653;SDS011;9975;48.046;7.804;2023-03-21T01:56:47;2.47;;;2.15;;
19653;SDS011;9975;48.046;7.804;2023-03-21T01:59:15;2.53;;;2.33;;
19653;SDS011;9975;48.046;7.804;2023-03-21T02:01:50;3.08;;;2.33;;
19653;SDS011;9975;48.046;7.804;2023-03-21T02:04:17;3.10;;;2.25;;
19653;SDS011;9975;48.046;7.804;2023-03-21T02:06:54;3.85;;;2.45;;
19653;SDS011;9975;48.046;7.804;2023-03-21T02:09:24;2.60;;;1.95;;
19653;SDS011;9975;48.046;7.804;2023-03-21T02:11:55;2.58;;;2.38;;
19653;SDS011;9975;48.046;7.804;2023-03-21T02:14:22;3.30;;;2.10;;
19653;SDS011;9975;48.046;7.804;2023-03-21T02:28:14;2.05;;;1.83;;
19653;SDS011;9975;48.046;7.804;2023-03-21T02:36:17;2.47;;;2.10;;
19653;SDS011;9975;48.046;7.804;2023-03-21T02:41:28;4.82;;;2.80;;
19653;SDS011;9975;48.046;7.804;2023-03-21T02:52:56;2.95;;;2.60;;
19653;SDS011;9975;48.046;7.804;2023-03-21T02:55:26;3.95;;;2.50;;
19653;SDS011;9975;48.046;7.804;2023-03-21T02:57:56;2.75;;;2.05;;
19653;SDS011;9975;48.046;7.804;2023-03-21T03:00:23;3.30;;;2.00;;
19653;SDS011;9975;48.046;7.804;2023-03-21T03:02:52;2.58;;;2.38;;
19653;SDS011;9975;48.046;7.804;2023-03-21T03:05:20;4.38;;;2.08;;
19653;SDS011;9975;48.046;7.804;2023-03-21T03:19:30;4.45;;;2.65;;
19653;SDS011;9975;48.046;7.804;2023-03-21T03:22:02;2.50;;;2.30;;
19653;SDS011;9975;48.046;7.804;2023-03-21T03:24:35;3.80;;;2.35;;
19653;SDS011;9975;48.046;7.804;2023-03-21T03:27:23;4.50;;;2.92;;
19653;SDS011;9975;48.046;7.804;2023-03-21T03:29:53;6.55;;;3.22;;
19653;SDS011;9975;48.046;7.804;2023-03-21T03:32:23;2.22;;;2.13;;
19653;SDS011;9975;48.046;7.804;2023-03-21T03:34:54;3.15;;;2.20;;
19653;SDS011;9975;48.046;7.804;2023-03-21T03:37:22;2.47;;;2.28;;
19653;SDS011;9975;48.046;7.804;2023-03-21T03:39:56;3.35;;;2.95;;
19653;SDS011;9975;48.046;7.804;2023-03-21T03:42:37;2.83;;;2.53;;
19653;SDS011;9975;48.046;7.804;2023-03-21T03:45:26;8.90;;;2.67;;
19653;SDS011;9975;48.046;7.804;2023-03-21T03:50:31;2.45;;;2.25;;
19653;SDS011;9975;48.046;7.804;2023-03-21T03:53:02;2.08;;;1.88;;
19653;SDS011;9975;48.046;7.804;2023-03-21T03:55:32;2.90;;;2.33;;
19653;SDS011;9975;48.046;7.804;2023-03-21T03:57:59;3.00;;;2.50;;
19653;SDS011;9975;48.046;7.804;2023-03-21T04:00:25;4.03;;;2.50;;
19653;SDS011;9975;48.046;7.804;2023-03-21T04:02:52;2.38;;;1.85;;
19653;SDS011;9975;48.046;7.804;2023-03-21T04:05:17;7.10;;;2.80;;
19653;SDS011;9975;48.046;7.804;2023-03-21T04:07:45;4.00;;;3.05;;
19653;SDS011;9975;48.046;7.804;2023-03-21T04:10:14;3.33;;;2.10;;
19653;SDS011;9975;48.046;7.804;2023-03-21T04:12:41;6.45;;;2.63;;
19653;SDS011;9975;48.046;7.804;2023-03-21T04:15:06;5.40;;;2.20;;
19653;SDS011;9975;48.046;7.804;2023-03-21T04:17:32;2.78;;;2.40;;
19653;SDS011;9975;48.046;7.804;2023-03-21T04:19:58;3.20;;;2.63;;
19653;SDS011;9975;48.046;7.804;2023-03-21T04:22:24;3.60;;;2.40;;
19653;SDS011;9975;48.046;7.804;2023-03-21T04:24:49;2.70;;;2.13;;
19653;SDS011;9975;48.046;7.804;2023-03-21T04:27:15;3.70;;;2.93;;
19653;SDS011;9975;48.046;7.804;2023-03-21T04:29:41;2.70;;;2.40;;
19653;SDS011;9975;48.046;7.804;2023-03-21T04:32:07;2.10;;;1.95;;
19653;SDS011;9975;48.046;7.804;2023-03-21T04:34:40;4.47;;;2.47;;
19653;SDS011;9975;48.046;7.804;2023-03-21T04:37:08;2.60;;;2.10;;
19653;SDS011;9975;48.046;7.804;2023-03-21T04:39:36;4.85;;;3.20;;
19653;SDS011;9975;48.046;7.804;2023-03-21T04:42:02;3.78;;;2.45;;
19653;SDS011;9975;48.046;7.804;2023-03-21T04:44:28;4.95;;;2.38;;
19653;SDS011;9975;48.046;7.804;2023-03-21T04:46:54;2.97;;;2.33;;
19653;SDS011;9975;48.046;7.804;2023-03-21T04:49:20;4.80;;;2.40;;
19653;SDS011;9975;48.046;7.804;2023-03-21T04:51:46;4.47;;;3.00;;
19653;SDS011;9975;48.046;7.804;2023-03-21T04:54:12;4.13;;;2.63;;
19653;SDS011;9975;48.046;7.804;2023-03-21T04:56:38;2.90;;;2.25;;
19653;SDS011;9975;48.046;7.804;2023-03-21T04:59:11;2.43;;;2.23;;
19653;SDS011;9975;48.046;7.804;2023-03-21T05:01:38;4.03;;;3.63;;
19653;SDS011;9975;48.046;7.804;2023-03-21T05:04:05;3.20;;;2.30;;
19653;SDS011;9975;48.046;7.804;2023-03-21T05:06:31;2.20;;;1.97;;
19653;SDS011;9975;48.046;7.804;2023-03-21T05:08:57;7.72;;;2.85;;
19653;SDS011;9975;48.046;7.804;2023-03-21T05:11:25;3.47;;;2.40;;
19653;SDS011;9975;48.046;7.804;2023-03-21T05:13:52;6.07;;;3.22;;
19653;SDS011;9975;48.046;7.804;2023-03-21T05:16:17;3.00;;;2.60;;
19653;SDS011;9975;48.046;7.804;2023-03-21T05:18:43;2.83;;;2.43;;
19653;SDS011;9975;48.046;7.804;2023-03-21T05:21:08;3.17;;;2.93;;
19653;SDS011;9975;48.046;7.804;2023-03-21T05:23:35;4.43;;;2.17;;
19653;SDS011;9975;48.046;7.804;2023-03-21T05:26:05;3.80;;;2.63;;
19653;SDS011;9975;48.046;7.804;2023-03-21T05:28:32;4.95;;;2.72;;
19653;SDS011;9975;48.046;7.804;2023-03-21T05:31:00;4.05;;;2.60;;
19653;SDS011;9975;48.046;7.804;2023-03-21T05:33:30;2.53;;;2.15;;
19653;SDS011;9975;48.046;7.804;2023-03-21T05:35:55;3.73;;;2.17;;
19653;SDS011;9975;48.046;7.804;2023-03-21T05:38:21;2.95;;;2.75;;
19653;SDS011;9975;48.046;7.804;2023-03-21T05:40:48;3.43;;;2.90;;
19653;SDS011;9975;48.046;7.804;2023-03-21T05:43:14;3.75;;;2.60;;
19653;SDS011;9975;48.046;7.804;2023-03-21T05:45:40;2.90;;;2.30;;
19653;SDS011;9975;48.046;7.804;2023-03-21T05:48:06;4.07;;;2.78;;
19653;SDS011;9975;48.046;7.804;2023-03-21T05:50:32;5.90;;;2.90;;
19653;SDS011;9975;48.046;7.804;2023-03-21T05:52:57;4.37;;;2.80;;
19653;SDS011;9975;48.046;7.804;2023-03-21T05:55:23;6.33;;;3.50;;
19653;SDS011;9975;48.046;7.804;2023-03-21T05:57:49;6.27;;;3.40;;
19653;SDS011;9975;48.046;7.804;2023-03-21T06:00:15;5.13;;;2.80;;
19653;SDS011;9975;48.046;7.804;2023-03-21T06:02:41;8.30;;;3.78;;
19653;SDS011;9975;48.046;7.804;2023-03-21T06:05:08;7.07;;;3.10;;
19653;SDS011;9975;48.046;7.804;2023-03-21T06:07:34;4.93;;;2.60;;
19653;SDS011;9975;48.046;7.804;2023-03-21T06:10:01;3.92;;;2.85;;
19653;SDS011;9975;48.046;7.804;2023-03-21T06:12:27;2.92;;;2.63;;
19653;SDS011;9975;48.046;7.804;2023-03-21T06:14:53;6.57;;;3.47;;
19653;SDS011;9975;48.046;7.804;2023-03-21T06:17:19;4.60;;;2.63;;
19653;SDS011;9975;48.046;7.804;2023-03-21T06:19:45;6.10;;;3.73;;
19653;SDS011;9975;48.046;7.804;2023-03-21T06:22:10;4.07;;;3.67;;
19653;SDS011;9975;48.046;7.804;2023-03-21T06:24:36;6.90;;;4.10;;
19653;SDS011;9975;48.046;7.804;2023-03-21T06:27:02;5.33;;;3.87;;
19653;SDS011;9975;48.046;7.804;2023-03-21T06:29:27;6.23;;;4.87;;
19653;SDS011;9975;48.046;7.804;2023-03-21T06:31:53;5.97;;;4.20;;
19653;SDS011;9975;48.046;7.804;2023-03-21T06:34:18;9.43;;;4.70;;
19653;SDS011;9975;48.046;7.804;2023-03-21T06:36:44;4.33;;;3.90;;
19653;SDS011;9975;48.046;7.804;2023-03-21T06:39:11;6.63;;;5.93;;
19653;SDS011;9975;48.046;7.804;2023-03-21T06:41:37;8.38;;;5.97;;
19653;SDS011;9975;48.046;7.804;2023-03-21T06:44:03;6.97;;;5.30;;
19653;SDS011;9975;48.046;7.804;2023-03-21T06:46:29;6.80;;;5.82;;
19653;SDS011;9975;48.046;7.804;2023-03-21T06:48:54;6.70;;;4.83;;
19653;SDS011;9975;48.046;7.804;2023-03-21T06:51:20;5.77;;;4.33;;
19653;SDS011;9975;48.046;7.804;2023-03-21T06:53:46;5.90;;;4.47;;
19653;SDS011;9975;48.046;7.804;2023-03-21T06:56:12;7.30;;;5.47;;
19653;SDS011;9975;48.046;7.804;2023-03-21T06:58:38;6.10;;;3.93;;
19653;SDS011;9975;48.046;7.804;2023-03-21T07:01:04;6.57;;;3.90;;
19653;SDS011;9975;48.046;7.804;2023-03-21T07:03:31;4.70;;;4.00;;
19653;SDS011;9975;48.046;7.804;2023-03-21T07:05:58;4.60;;;2.60;;
19653;SDS011;9975;48.046;7.804;2023-03-21T07:08:28;6.53;;;4.07;;
19653;SDS011;9975;48.046;7.804;2023-03-21T07:10:54;4.50;;;3.20;;
19653;SDS011;9975;48.046;7.804;2023-03-21T07:13:21;6.23;;;3.23;;
19653;SDS011;9975;48.046;7.804;2023-03-21T07:15:47;7.30;;;3.50;;
19653;SDS011;9975;48.046;7.804;2023-03-21T07:18:13;4.60;;;3.20;;
19653;SDS011;9975;48.046;7.804;2023-03-21T07:20:39;6.17;;;4.30;;
19653;SDS011;9975;48.046;7.804;2023-03-21T07:23:05;4.23;;;2.93;;
19653;SDS011;9975;48.046;7.804;2023-03-21T07:25:31;2.33;;;2.13;;
19653;SDS011;9975;48.046;7.804;2023-03-21T07:27:57;2.70;;;2.30;;
19653;SDS011;9975;48.046;7.804;2023-03-21T07:30:23;1.97;;;1.87;;
19653;SDS011;9975;48.046;7.804;2023-03-21T07:32:48;3.40;;;2.87;;
19653;SDS011;9975;48.046;7.804;2023-03-21T07:35:15;2.67;;;2.47;;
19653;SDS011;9975;48.046;7.804;2023-03-21T07:37:41;3.40;;;2.30;;
19653;SDS011;9975;48.046;7.804;2023-03-21T07:40:08;3.53;;;2.60;;
19653;SDS011;9975;48.046;7.804;2023-03-21T07:42:35;3.10;;;2.70;;
19653;SDS011;9975;48.046;7.804;2023-03-21T07:45:02;2.43;;;2.23;;
19653;SDS011;9975;48.046;7.804;2023-03-21T07:47:29;3.30;;;3.00;;
19653;SDS011;9975;48.046;7.804;2023-03-21T07:49:56;8.40;;;2.90;;
19653;SDS011;9975;48.046;7.804;2023-03-21T07:52:22;6.03;;;2.90;;
19653;SDS011;9975;48.046;7.804;2023-03-21T07:54:48;3.47;;;2.90;;
19653;SDS011;9975;48.046;7.804;2023-03-21T07:57:14;3.80;;;2.90;;
19653;SDS011;9975;48.046;7.804;2023-03-21T07:59:40;4.23;;;3.30;;
19653;SDS011;9975;48.046;7.804;2023-03-21T08:02:06;4.60;;;2.87;;
19653;SDS011;9975;48.046;7.804;2023-03-21T08:04:32;2.57;;;2.23;;
19653;SDS011;9975;48.046;7.804;2023-03-21T08:06:59;5.57;;;4.47;;
19653;SDS011;9975;48.046;7.804;2023-03-21T08:09:25;2.60;;;2.40;;
19653;SDS011;9975;48.046;7.804;2023-03-21T08:11:51;4.87;;;3.50;;
19653;SDS011;9975;48.046;7.804;2023-03-21T08:14:16;2.93;;;2.63;;
19653;SDS011;9975;48.046;7.804;2023-03-21T08:16:46;3.60;;;3.23;;
19653;SDS011;9975;48.046;7.804;2023-03-21T08:19:12;3.63;;;2.80;;
19653;SDS011;9975;48.046;7.804;2023-03-21T08:21:39;3.97;;;2.83;;
19653;SDS011;9975;48.046;7.804;2023-03-21T08:24:04;3.60;;;2.93;;
19653;SDS011;9975;48.046;7.804;2023-03-21T08:26:31;2.20;;;2.00;;
19653;SDS011;9975;48.046;7.804;2023-03-21T08:28:58;2.90;;;2.70;;
19653;SDS011;9975;48.046;7.804;2023-03-21T08:31:23;3.50;;;2.47;;
19653;SDS011;9975;48.046;7.804;2023-03-21T08:33:49;4.13;;;2.47;;
19653;SDS011;9975;48.046;7.804;2023-03-21T08:36:18;3.00;;;2.23;;
19653;SDS011;9975;48.046;7.804;2023-03-21T08:38:45;3.33;;;3.00;;
19653;SDS011;9975;48.046;7.804;2023-03-21T08:41:12;4.67;;;2.97;;
19653;SDS011;9975;48.046;7.804;2023-03-21T08:43:40;3.40;;;2.63;;
19653;SDS011;9975;48.046;7.804;2023-03-21T08:46:06;3.17;;;2.60;;
19653;SDS011;9975;48.046;7.804;2023-03-21T08:48:32;2.67;;;2.47;;
19653;SDS011;9975;48.046;7.804;2023-03-21T08:51:00;5.43;;;2.90;;
19653;SDS011;9975;48.046;7.804;2023-03-21T08:53:26;3.90;;;2.40;;
19653;SDS011;9975;48.046;7.804;2023-03-21T08:55:51;3.30;;;2.90;;
19653;SDS011;9975;48.046;7.804;2023-03-21T08:58:17;3.13;;;2.40;;
19653;SDS011;9975;48.046;7.804;2023-03-21T09:00:43;4.07;;;2.90;;
19653;SDS011;9975;48.046;7.804;2023-03-21T09:03:08;5.50;;;2.70;;
19653;SDS011;9975;48.046;7.804;2023-03-21T09:05:34;6.43;;;2.13;;
19653;SDS011;9975;48.046;7.804;2023-03-21T09:08:00;2.07;;;1.87;;
19653;SDS011;9975;48.046;7.804;2023-03-21T09:10:27;3.00;;;2.23;;
19653;SDS011;9975;48.046;7.804;2023-03-21T09:12:54;6.67;;;2.20;;
19653;SDS011;9975;48.046;7.804;2023-03-21T09:15:21;6.23;;;2.40;;
19653;SDS011;9975;48.046;7.804;2023-03-21T09:17:50;2.90;;;2.03;;
19653;SDS011;9975;48.046;7.804;2023-03-21T09:20:18;1.87;;;1.77;;
19653;SDS011;9975;48.046;7.804;2023-03-21T09:22:50;2.20;;;2.10;;
19653;SDS011;9975;48.046;7.804;2023-03-21T09:25:18;3.70;;;2.20;;
19653;SDS011;9975;48.046;7.804;2023-03-21T09:27:45;6.47;;;3.60;;
19653;SDS011;9975;48.046;7.804;2023-03-21T09:30:12;2.53;;;2.03;;
19653;SDS011;9975;48.046;7.804;2023-03-21T09:32:40;4.90;;;1.80;;
19653;SDS011;9975;48.046;7.804;2023-03-21T09:35:06;2.20;;;1.90;;
19653;SDS011;9975;48.046;7.804;2023-03-21T09:37:32;2.47;;;2.27;;
19653;SDS011;9975;48.046;7.804;2023-03-21T09:40:06;4.77;;;2.93;;
19653;SDS011;9975;48.046;7.804;2023-03-21T09:48:23;2.33;;;2.10;;
19653;SDS011;9975;48.046;7.804;2023-03-21T09:51:16;3.83;;;2.00;;
19653;SDS011;9975;48.046;7.804;2023-03-21T09:53:43;4.03;;;2.17;;
19653;SDS011;9975;48.046;7.804;2023-03-21T09:56:12;3.10;;;2.10;;
19653;SDS011;9975;48.046;7.804;2023-03-21T10:03:34;2.87;;;2.20;;
19653;SDS011;9975;48.046;7.804;2023-03-21T10:06:04;1.70;;;1.60;;
19653;SDS011;9975;48.046;7.804;2023-03-21T10:08:40;2.90;;;1.93;;
19653;SDS011;9975;48.046;7.804;2023-03-21T10:11:14;1.63;;;1.53;;
19653;SDS011;9975;48.046;7.804;2023-03-21T10:13:48;2.27;;;1.60;;
19653;SDS011;9975;48.046;7.804;2023-03-21T10:16:27;2.40;;;2.00;;
19653;SDS011;9975;48.046;7.804;2023-03-21T10:18:56;1.90;;;1.60;;
19653;SDS011;9975;48.046;7.804;2023-03-21T10:21:27;3.33;;;2.10;;
19653;SDS011;9975;48.046;7.804;2023-03-21T10:23:53;3.23;;;2.40;;
19653;SDS011;9975;48.046;7.804;2023-03-21T10:26:21;3.30;;;2.17;;
19653;SDS011;9975;48.046;7.804;2023-03-21T10:28:50;2.40;;;1.87;;
19653;SDS011;9975;48.046;7.804;2023-03-21T10:31:19;1.67;;;1.53;;
19653;SDS011;9975;48.046;7.804;2023-03-21T10:33:49;2.23;;;1.80;;
19653;SDS011;9975;48.046;7.804;2023-03-21T10:36:19;6.87;;;1.70;;
19653;SDS011;9975;48.046;7.804;2023-03-21T10:38:59;2.10;;;1.67;;
19653;SDS011;9975;48.046;7.804;2023-03-21T10:41:28;2.07;;;1.87;;
19653;SDS011;9975;48.046;7.804;2023-03-21T10:46:35;1.53;;;1.43;;
19653;SDS011;9975;48.046;7.804;2023-03-21T10:49:02;1.90;;;1.50;;
19653;SDS011;9975;48.046;7.804;2023-03-21T10:51:31;4.40;;;1.67;;
19653;SDS011;9975;48.046;7.804;2023-03-21T10:54:02;2.20;;;1.83;;
19653;SDS011;9975;48.046;7.804;2023-03-21T10:56:35;2.40;;;1.70;;
19653;SDS011;9975;48.046;7.804;2023-03-21T10:59:04;1.70;;;1.60;;
19653;SDS011;9975;48.046;7.804;2023-03-21T11:01:39;1.83;;;1.50;;
19653;SDS011;9975;48.046;7.804;2023-03-21T11:04:20;1.57;;;1.47;;
19653;SDS011;9975;48.046;7.804;2023-03-21T11:06:52;1.50;;;1.40;;
19653;SDS011;9975;48.046;7.804;2023-03-21T11:09:44;1.97;;;1.60;;
19653;SDS011;9975;48.046;7.804;2023-03-21T11:12:13;2.07;;;1.50;;
19653;SDS011;9975;48.046;7.804;2023-03-21T11:14:44;3.63;;;1.33;;
19653;SDS011;9975;48.046;7.804;2023-03-21T11:20:05;2.70;;;1.43;;
19653;SDS011;9975;48.046;7.804;2023-03-21T11:22:36;1.93;;;1.30;;
19653;SDS011;9975;48.046;7.804;2023-03-21T11:25:06;1.60;;;1.23;;
19653;SDS011;9975;48.046;7.804;2023-03-21T11:27:36;1.37;;;1.27;;
19653;SDS011;9975;48.046;7.804;2023-03-21T11:30:15;1.57;;;1.40;;
19653;SDS011;9975;48.046;7.804;2023-03-21T11:32:53;1.80;;;1.27;;
19653;SDS011;9975;48.046;7.804;2023-03-21T11:35:33;1.67;;;1.57;;
19653;SDS011;9975;48.046;7.804;2023-03-21T11:38:00;1.70;;;1.37;;
19653;SDS011;9975;48.046;7.804;2023-03-21T11:40:33;2.50;;;1.67;;
19653;SDS011;9975;48.046;7.804;2023-03-21T11:43:05;1.90;;;1.37;;
19653;SDS011;9975;48.046;7.804;2023-03-21T11:48:41;1.73;;;1.63;;
19653;SDS011;9975;48.046;7.804;2023-03-21T11:51:11;7.03;;;1.63;;
19653;SDS011;9975;48.046;7.804;2023-03-21T11:56:55;1.90;;;1.23;;
19653;SDS011;9975;48.046;7.804;2023-03-21T12:05:36;2.30;;;1.00;;
19653;SDS011;9975;48.046;7.804;2023-03-21T12:11:14;1.67;;;1.40;;
19653;SDS011;9975;48.046;7.804;2023-03-21T12:14:04;3.97;;;2.27;;
19653;SDS011;9975;48.046;7.804;2023-03-21T12:25:20;2.23;;;1.90;;
19653;SDS011;9975;48.046;7.804;2023-03-21T12:28:10;1.57;;;1.37;;
19653;SDS011;9975;48.046;7.804;2023-03-21T12:30:47;2.50;;;1.40;;
19653;SDS011;9975;48.046;7.804;2023-03-21T12:33:31;1.60;;;1.50;;
19653;SDS011;9975;48.046;7.804;2023-03-21T12:39:03;1.70;;;1.53;;
19653;SDS011;9975;48.046;7.804;2023-03-21T12:41:33;1.70;;;1.10;;
19653;SDS011;9975;48.046;7.804;2023-03-21T12:49:21;3.80;;;1.80;;
19653;SDS011;9975;48.046;7.804;2023-03-21T12:52:00;1.37;;;1.27;;
19653;SDS011;9975;48.046;7.804;2023-03-21T12:57:19;1.90;;;1.47;;
19653;SDS011;9975;48.046;7.804;2023-03-21T13:00:02;1.70;;;1.60;;
19653;SDS011;9975;48.046;7.804;2023-03-21T13:02:42;1.20;;;1.20;;
19653;SDS011;9975;48.046;7.804;2023-03-21T13:07:47;3.50;;;1.00;;
19653;SDS011;9975;48.046;7.804;2023-03-21T13:10:19;2.80;;;1.80;;
19653;SDS011;9975;48.046;7.804;2023-03-21T13:15:38;2.07;;;1.87;;
19653;SDS011;9975;48.046;7.804;2023-03-21T13:18:46;2.20;;;1.20;;
19653;SDS011;9975;48.046;7.804;2023-03-21T13:29:51;1.80;;;1.70;;
19653;SDS011;9975;48.046;7.804;2023-03-21T13:32:28;0.87;;;0.87;;
19653;SDS011;9975;48.046;7.804;2023-03-21T13:35:00;1.20;;;1.10;;
19653;SDS011;9975;48.046;7.804;2023-03-21T13:37:31;0.77;;;0.70;;
19653;SDS011;9975;48.046;7.804;2023-03-21T13:39:59;1.10;;;1.00;;
19653;SDS011;9975;48.046;7.804;2023-03-21T13:42:33;2.50;;;0.97;;
19653;SDS011;9975;48.046;7.804;2023-03-21T13:45:00;1.57;;;1.10;;
19653;SDS011;9975;48.046;7.804;2023-03-21T13:47:39;3.53;;;0.80;;
19653;SDS011;9975;48.046;7.804;2023-03-21T13:52:41;1.33;;;1.17;;
19653;SDS011;9975;48.046;7.804;2023-03-21T13:55:29;1.53;;;1.43;;
19653;SDS011;9975;48.046;7.804;2023-03-21T13:58:01;0.97;;;0.93;;
19653;SDS011;9975;48.046;7.804;2023-03-21T14:03:48;0.90;;;0.90;;
19653;SDS011;9975;48.046;7.804;2023-03-21T14:06:15;1.07;;;0.90;;
19653;SDS011;9975;48.046;7.804;2023-03-21T14:08:45;0.80;;;0.80;;
19653;SDS011;9975;48.046;7.804;2023-03-21T14:11:15;0.90;;;0.70;;
19653;SDS011;9975;48.046;7.804;2023-03-21T14:13:43;1.10;;;1.00;;
19653;SDS011;9975;48.046;7.804;2023-03-21T14:16:16;1.80;;;1.23;;
19653;SDS011;9975;48.046;7.804;2023-03-21T14:18:46;0.77;;;0.70;;
19653;SDS011;9975;48.046;7.804;2023-03-21T14:21:22;1.93;;;0.80;;
19653;SDS011;9975;48.046;7.804;2023-03-21T14:26:35;1.97;;;1.00;;
19653;SDS011;9975;48.046;7.804;2023-03-21T14:29:06;1.33;;;0.93;;
19653;SDS011;9975;48.046;7.804;2023-03-21T14:31:34;1.03;;;0.80;;
19653;SDS011;9975;48.046;7.804;2023-03-21T14:34:00;0.77;;;0.77;;
19653;SDS011;9975;48.046;7.804;2023-03-21T14:36:28;1.90;;;0.80;;
19653;SDS011;9975;48.046;7.804;2023-03-21T14:39:01;1.00;;;0.90;;
19653;SDS011;9975;48.046;7.804;2023-03-21T14:41:42;1.00;;;0.90;;
19653;SDS011;9975;48.046;7.804;2023-03-21T14:44:23;1.17;;;0.80;;
19653;SDS011;9975;48.046;7.804;2023-03-21T14:47:03;0.93;;;0.83;;
19653;SDS011;9975;48.046;7.804;2023-03-21T14:49:44;0.60;;;0.53;;
19653;SDS011;9975;48.046;7.804;2023-03-21T14:52:12;0.70;;;0.70;;
19653;SDS011;9975;48.046;7.804;2023-03-21T14:54:43;3.37;;;1.33;;
19653;SDS011;9975;48.046;7.804;2023-03-21T14:57:12;2.97;;;2.30;;
19653;SDS011;9975;48.046;7.804;2023-03-21T14:59:42;1.40;;;1.30;;
19653;SDS011;9975;48.046;7.804;2023-03-21T15:02:15;0.97;;;0.80;;
19653;SDS011;9975;48.046;7.804;2023-03-21T15:04:44;1.67;;;0.90;;
19653;SDS011;9975;48.046;7.804;2023-03-21T15:07:22;2.40;;;1.03;;
19653;SDS011;9975;48.046;7.804;2023-03-21T15:09:57;1.37;;;1.27;;
19653;SDS011;9975;48.046;7.804;2023-03-21T15:12:25;2.17;;;1.53;;
19653;SDS011;9975;48.046;7.804;2023-03-21T15:14:51;0.80;;;0.80;;
19653;SDS011;9975;48.046;7.804;2023-03-21T15:17:18;1.30;;;1.20;;
19653;SDS011;9975;48.046;7.804;2023-03-21T15:19:44;1.30;;;1.20;;
19653;SDS011;9975;48.046;7.804;2023-03-21T15:22:15;1.03;;;0.83;;
19653;SDS011;9975;48.046;7.804;2023-03-21T15:24:52;2.70;;;1.10;;
19653;SDS011;9975;48.046;7.804;2023-03-21T15:27:22;3.17;;;1.60;;
19653;SDS011;9975;48.046;7.804;2023-03-21T15:29:49;1.77;;;1.47;;
19653;SDS011;9975;48.046;7.804;2023-03-21T15:32:19;4.00;;;1.70;;
19653;SDS011;9975;48.046;7.804;2023-03-21T15:34:47;1.17;;;1.07;;
19653;SDS011;9975;48.046;7.804;2023-03-21T15:37:15;1.60;;;1.20;;
19653;SDS011;9975;48.046;7.804;2023-03-21T15:39:45;1.13;;;1.03;;
19653;SDS011;9975;48.046;7.804;2023-03-21T15:44:51;1.10;;;1.10;;
19653;SDS011;9975;48.046;7.804;2023-03-21T15:47:37;1.47;;;0.80;;
19653;SDS011;9975;48.046;7.804;2023-03-21T15:50:15;9.07;;;3.33;;
19653;SDS011;9975;48.046;7.804;2023-03-21T15:52:51;2.23;;;1.30;;
19653;SDS011;9975;48.046;7.804;2023-03-21T15:55:23;6.23;;;3.70;;
19653;SDS011;9975;48.046;7.804;2023-03-21T15:57:54;23.90;;;10.97;;
19653;SDS011;9975;48.046;7.804;2023-03-21T16:00:40;25.00;;;12.53;;
19653;SDS011;9975;48.046;7.804;2023-03-21T16:03:30;6.93;;;4.50;;
19653;SDS011;9975;48.046;7.804;2023-03-21T16:08:51;1.80;;;1.70;;
19653;SDS011;9975;48.046;7.804;2023-03-21T16:11:36;2.17;;;1.00;;
19653;SDS011;9975;48.046;7.804;2023-03-21T16:14:07;0.67;;;0.60;;
19653;SDS011;9975;48.046;7.804;2023-03-21T16:16:33;1.57;;;1.00;;
19653;SDS011;9975;48.046;7.804;2023-03-21T16:18:59;1.70;;;0.80;;
19653;SDS011;9975;48.046;7.804;2023-03-21T16:21:29;1.20;;;1.10;;
19653;SDS011;9975;48.046;7.804;2023-03-21T16:23:55;0.83;;;0.83;;
19653;SDS011;9975;48.046;7.804;2023-03-21T16:26:32;1.20;;;1.13;;
19653;SDS011;9975;48.046;7.804;2023-03-21T16:29:01;0.87;;;0.83;;
19653;SDS011;9975;48.046;7.804;2023-03-21T16:31:29;1.53;;;1.00;;
19653;SDS011;9975;48.046;7.804;2023-03-21T16:33:57;0.50;;;0.50;;
19653;SDS011;9975;48.046;7.804;2023-03-21T16:36:24;0.90;;;0.77;;
19653;SDS011;9975;48.046;7.804;2023-03-21T16:38:54;3.90;;;1.07;;
19653;SDS011;9975;48.046;7.804;2023-03-21T16:41:20;1.27;;;1.07;;
19653;SDS011;9975;48.046;7.804;2023-03-21T16:43:48;1.90;;;1.17;;
19653;SDS011;9975;48.046;7.804;2023-03-21T16:46:15;1.10;;;0.93;;
19653;SDS011;9975;48.046;7.804;2023-03-21T16:48:46;4.40;;;1.33;;
19653;SDS011;9975;48.046;7.804;2023-03-21T16:51:18;1.53;;;1.03;;
19653;SDS011;9975;48.046;7.804;2023-03-21T16:53:51;1.03;;;0.90;;
19653;SDS011;9975;48.046;7.804;2023-03-21T16:56:22;3.37;;;1.20;;
19653;SDS011;9975;48.046;7.804;2023-03-21T16:58:52;1.10;;;1.03;;
19653;SDS011;9975;48.046;7.804;2023-03-21T17:01:22;1.30;;;1.20;;
19653;SDS011;9975;48.046;7.804;2023-03-21T17:03:54;2.13;;;1.03;;
19653;SDS011;9975;48.046;7.804;2023-03-21T17:06:22;5.03;;;1.90;;
19653;SDS011;9975;48.046;7.804;2023-03-21T17:08:51;10.17;;;5.27;;
19653;SDS011;9975;48.046;7.804;2023-03-21T17:11:19;6.93;;;2.10;;
19653;SDS011;9975;48.046;7.804;2023-03-21T17:13:49;3.20;;;1.20;;
19653;SDS011;9975;48.046;7.804;2023-03-21T17:16:18;4.17;;;2.10;;
19653;SDS011;9975;48.046;7.804;2023-03-21T17:18:47;2.20;;;1.33;;
19653;SDS011;9975;48.046;7.804;2023-03-21T17:21:14;1.70;;;1.60;;
19653;SDS011;9975;48.046;7.804;2023-03-21T17:23:43;7.20;;;6.50;;
19653;SDS011;9975;48.046;7.804;2023-03-21T17:26:09;4.73;;;3.33;;
19653;SDS011;9975;48.046;7.804;2023-03-21T17:28:37;6.20;;;5.60;;
19653;SDS011;9975;48.046;7.804;2023-03-21T17:31:18;2.03;;;1.07;;
19653;SDS011;9975;48.046;7.804;2023-03-21T17:33:45;4.50;;;3.03;;
19653;SDS011;9975;48.046;7.804;2023-03-21T17:36:23;2.60;;;1.27;;
19653;SDS011;9975;48.046;7.804;2023-03-21T17:38:53;1.50;;;1.20;;
19653;SDS011;9975;48.046;7.804;2023-03-21T17:41:19;0.80;;;0.80;;
19653;SDS011;9975;48.046;7.804;2023-03-21T17:43:46;1.50;;;1.40;;
19653;SDS011;9975;48.046;7.804;2023-03-21T17:46:13;1.57;;;0.80;;
19653;SDS011;9975;48.046;7.804;2023-03-21T17:48:41;1.50;;;1.40;;
19653;SDS011;9975;48.046;7.804;2023-03-21T17:51:07;2.30;;;2.00;;
19653;SDS011;9975;48.046;7.804;2023-03-21T17:53:43;19.80;;;2.43;;
19653;SDS011;9975;48.046;7.804;2023-03-21T17:56:18;1.93;;;1.80;;
19653;SDS011;9975;48.046;7.804;2023-03-21T17:58:53;2.40;;;2.20;;
19653;SDS011;9975;48.046;7.804;2023-03-21T18:01:20;1.57;;;1.20;;
19653;SDS011;9975;48.046;7.804;2023-03-21T18:03:47;2.27;;;2.07;;
19653;SDS011;9975;48.046;7.804;2023-03-21T18:06:14;3.40;;;2.90;;
19653;SDS011;9975;48.046;7.804;2023-03-21T18:08:42;6.40;;;4.63;;
19653;SDS011;9975;48.046;7.804;2023-03-21T18:11:08;2.30;;;1.30;;
19653;SDS011;9975;48.046;7.804;2023-03-21T18:13:36;3.53;;;2.90;;
19653;SDS011;9975;48.046;7.804;2023-03-21T18:16:03;1.40;;;1.30;;
19653;SDS011;9975;48.046;7.804;2023-03-21T18:18:29;1.90;;;1.70;;
19653;SDS011;9975;48.046;7.804;2023-03-21T18:20:55;3.70;;;2.87;;
19653;SDS011;9975;48.046;7.804;2023-03-21T18:23:20;2.93;;;1.67;;
19653;SDS011;9975;48.046;7.804;2023-03-21T18:25:46;2.70;;;1.63;;
19653;SDS011;9975;48.046;7.804;2023-03-21T18:28:11;5.90;;;1.47;;
19653;SDS011;9975;48.046;7.804;2023-03-21T18:30:37;1.03;;;0.83;;
19653;SDS011;9975;48.046;7.804;2023-03-21T18:33:03;0.83;;;0.80;;
19653;SDS011;9975;48.046;7.804;2023-03-21T18:35:29;2.57;;;1.07;;
19653;SDS011;9975;48.046;7.804;2023-03-21T18:37:55;1.83;;;1.23;;
19653;SDS011;9975;48.046;7.804;2023-03-21T18:40:21;0.90;;;0.90;;
19653;SDS011;9975;48.046;7.804;2023-03-21T18:42:48;2.87;;;1.10;;
19653;SDS011;9975;48.046;7.804;2023-03-21T18:45:14;1.53;;;1.10;;
19653;SDS011;9975;48.046;7.804;2023-03-21T18:47:42;1.13;;;1.03;;
19653;SDS011;9975;48.046;7.804;2023-03-21T18:50:08;3.50;;;2.13;;
19653;SDS011;9975;48.046;7.804;2023-03-21T18:52:35;1.40;;;1.30;;
19653;SDS011;9975;48.046;7.804;2023-03-21T18:55:02;2.10;;;1.20;;
19653;SDS011;9975;48.046;7.804;2023-03-21T18:57:28;1.10;;;1.00;;
19653;SDS011;9975;48.046;7.804;2023-03-21T18:59:57;1.00;;;1.00;;
19653;SDS011;9975;48.046;7.804;2023-03-21T19:02:23;2.73;;;1.57;;
19653;SDS011;9975;48.046;7.804;2023-03-21T19:04:49;2.20;;;1.20;;
19653;SDS011;9975;48.046;7.804;2023-03-21T19:07:14;1.33;;;1.00;;
19653;SDS011;9975;48.046;7.804;2023-03-21T19:09:40;1.37;;;1.10;;
19653;SDS011;9975;48.046;7.804;2023-03-21T19:12:06;2.73;;;1.40;;